Time;durP1;ratioP1;P1;durP2;ratioP2;P2;SDS_P1;SDS_P2;PMS_P1;PMS_P2;Temp;Humidity;BMP_temperature;BMP_pressure;BME280_temperature;BME280_humidity;BME280_pressure;Samples;Min_cycle;Max_cycle;Signal;HPM_P1;HPM_P2
2023/08/15 00:01:13;;;;;;;6.72;4.50;;;;;;;;;;5067928;28;20056;-71
2023/08/15 00:03:40;;;;;;;9.98;4.45;;;;;;;;;;5065614;28;20056;-70
2023/08/15 00:06:08;;;;;;;7.63;4.45;;;;;;;;;;5068426;28;20056;-71
2023/08/15 00:08:35;;;;;;;7.43;4.75;;;;;;;;;;5067253;28;20048;-71
2023/08/15 00:11:02;;;;;;;6.25;5.18;;;;;;;;;;5067755;28;20059;-71
2023/08/15 00:13:29;;;;;;;7.35;4.53;;;;;;;;;;5065437;28;20746;-70
2023/08/15 00:15:58;;;;;;;8.30;4.55;;;;;;;;;;5065498;28;20044;-71
2023/08/15 00:18:25;;;;;;;5.60;4.25;;;;;;;;;;5067673;28;20080;-70
2023/08/15 00:20:53;;;;;;;7.88;4.28;;;;;;;;;;5063514;28;20052;-71
2023/08/15 00:23:20;;;;;;;6.35;4.10;;;;;;;;;;5063230;28;20055;-71
2023/08/15 00:25:47;;;;;;;5.38;4.00;;;;;;;;;;5066239;28;20429;-71
2023/08/15 00:28:14;;;;;;;6.65;4.30;;;;;;;;;;5064700;28;20051;-71
2023/08/15 00:30:43;;;;;;;6.70;4.53;;;;;;;;;;5066953;28;20044;-71
2023/08/15 00:33:11;;;;;;;7.65;4.22;;;;;;;;;;5067576;28;20460;-71
2023/08/15 00:35:38;;;;;;;8.10;4.70;;;;;;;;;;5068237;28;20074;-71
2023/08/15 00:38:06;;;;;;;6.53;4.00;;;;;;;;;;5067171;28;20048;-71
2023/08/15 00:40:33;;;;;;;5.63;3.78;;;;;;;;;;5067547;28;20048;-71
2023/08/15 00:43:00;;;;;;;5.65;3.90;;;;;;;;;;5066023;28;20056;-71
2023/08/15 00:45:28;;;;;;;6.80;4.10;;;;;;;;;;5066976;28;20056;-71
2023/08/15 00:47:55;;;;;;;5.93;4.13;;;;;;;;;;5068001;28;20048;-71
2023/08/15 00:50:25;;;;;;;6.20;4.05;;;;;;;;;;5063648;28;20076;-71
2023/08/15 00:52:52;;;;;;;6.45;3.97;;;;;;;;;;5064823;28;20053;-70
2023/08/15 00:55:20;;;;;;;4.55;3.80;;;;;;;;;;5059608;28;20070;-71
2023/08/15 00:57:47;;;;;;;5.82;4.03;;;;;;;;;;5060233;28;20040;-71
2023/08/15 01:00:15;;;;;;;6.28;3.70;;;;;;;;;;5067019;28;20491;-70
2023/08/15 01:02:43;;;;;;;6.43;3.47;;;;;;;;;;5067351;28;20053;-71
2023/08/15 01:05:11;;;;;;;7.35;3.55;;;;;;;;;;5064557;28;20086;-71
2023/08/15 01:07:39;;;;;;;6.88;3.40;;;;;;;;;;5061296;28;20060;-71
2023/08/15 01:10:07;;;;;;;8.90;3.58;;;;;;;;;;5064043;28;20471;-71
2023/08/15 01:12:40;;;;;;;6.70;3.40;;;;;;;;;;5061334;28;20052;-71
2023/08/15 01:15:09;;;;;;;7.25;3.45;;;;;;;;;;5062805;28;20384;-71
2023/08/15 01:17:38;;;;;;;4.47;3.00;;;;;;;;;;5061497;28;20056;-71
2023/08/15 01:20:08;;;;;;;7.57;3.75;;;;;;;;;;5065203;28;20048;-70
2023/08/15 01:22:38;;;;;;;8.75;4.20;;;;;;;;;;5064656;28;20063;-71
2023/08/15 01:25:07;;;;;;;8.65;4.30;;;;;;;;;;5066622;28;20079;-70
2023/08/15 01:27:34;;;;;;;8.70;4.43;;;;;;;;;;5063889;28;20053;-71
2023/08/15 01:30:01;;;;;;;9.40;4.43;;;;;;;;;;5065429;28;20084;-70
2023/08/15 01:32:32;;;;;;;12.50;4.97;;;;;;;;;;5061474;28;20515;-71
2023/08/15 01:35:04;;;;;;;7.07;4.47;;;;;;;;;;5060673;28;20052;-71
2023/08/15 01:37:31;;;;;;;7.40;4.68;;;;;;;;;;5057661;28;20049;-71
2023/08/15 01:40:01;;;;;;;9.40;4.80;;;;;;;;;;5062283;28;20061;-71
2023/08/15 01:42:31;;;;;;;8.00;4.75;;;;;;;;;;5064249;28;20056;-71
2023/08/15 01:44:58;;;;;;;7.45;4.85;;;;;;;;;;5060329;28;20396;-71
2023/08/15 01:47:26;;;;;;;9.85;4.80;;;;;;;;;;5062577;28;20131;-71
2023/08/15 01:49:53;;;;;;;8.70;4.63;;;;;;;;;;5057736;28;20468;-71
2023/08/15 01:52:20;;;;;;;8.95;4.65;;;;;;;;;;5067731;28;20048;-70
2023/08/15 01:54:47;;;;;;;8.23;4.75;;;;;;;;;;5061441;28;20071;-71
2023/08/15 01:57:15;;;;;;;11.48;4.90;;;;;;;;;;5064059;28;20045;-71
2023/08/15 01:59:44;;;;;;;9.85;4.93;;;;;;;;;;5057906;28;20052;-70
2023/08/15 02:02:11;;;;;;;11.68;5.38;;;;;;;;;;5053399;28;20093;-71
2023/08/15 02:04:38;;;;;;;9.38;4.82;;;;;;;;;;5067217;28;20056;-71
2023/08/15 02:07:06;;;;;;;8.10;4.72;;;;;;;;;;5063942;28;20079;-71
2023/08/15 02:09:33;;;;;;;10.48;4.43;;;;;;;;;;5057572;28;20083;-71
2023/08/15 02:12:00;;;;;;;8.45;5.38;;;;;;;;;;5063650;28;20045;-70
2023/08/15 02:14:27;;;;;;;6.70;4.85;;;;;;;;;;5056504;28;20056;-71
2023/08/15 02:16:56;;;;;;;8.07;4.63;;;;;;;;;;5059824;28;20052;-71
2023/08/15 02:19:23;;;;;;;7.85;5.15;;;;;;;;;;5067326;28;20052;-71
2023/08/15 02:21:51;;;;;;;9.52;4.60;;;;;;;;;;5059043;28;20048;-71
2023/08/15 02:24:18;;;;;;;7.57;4.70;;;;;;;;;;5072835;28;20060;-71
2023/08/15 02:26:45;;;;;;;7.68;4.97;;;;;;;;;;5067913;28;20052;-71
2023/08/15 02:29:15;;;;;;;7.40;4.38;;;;;;;;;;5066414;28;20179;-71
2023/08/15 02:31:44;;;;;;;7.43;5.18;;;;;;;;;;5067813;28;20048;-71
2023/08/15 02:34:13;;;;;;;8.13;5.00;;;;;;;;;;5059535;28;20049;-71
2023/08/15 02:36:40;;;;;;;9.63;5.20;;;;;;;;;;5065212;28;20048;-71
2023/08/15 02:39:07;;;;;;;8.95;4.43;;;;;;;;;;5069483;28;20055;-71
2023/08/15 02:41:35;;;;;;;8.55;5.18;;;;;;;;;;5062877;28;20105;-70
2023/08/15 02:44:02;;;;;;;7.43;4.47;;;;;;;;;;5057833;28;20052;-71
2023/08/15 02:46:29;;;;;;;8.15;4.93;;;;;;;;;;5062860;28;20064;-71
2023/08/15 02:48:56;;;;;;;9.85;4.80;;;;;;;;;;5066079;28;20170;-71
2023/08/15 02:51:25;;;;;;;7.00;5.10;;;;;;;;;;5063795;28;20049;-71
2023/08/15 02:53:52;;;;;;;11.05;4.78;;;;;;;;;;5069392;28;20056;-71
2023/08/15 02:56:20;;;;;;;9.80;5.20;;;;;;;;;;5062175;28;20042;-71
2023/08/15 02:58:47;;;;;;;8.40;5.35;;;;;;;;;;5064839;28;20063;-71
2023/08/15 03:01:14;;;;;;;8.95;5.70;;;;;;;;;;5070987;28;20126;-70
2023/08/15 03:03:41;;;;;;;10.90;5.45;;;;;;;;;;5069600;28;20080;-70
2023/08/15 03:06:09;;;;;;;9.10;5.30;;;;;;;;;;5067081;28;20048;-70
2023/08/15 03:08:38;;;;;;;11.82;5.50;;;;;;;;;;5067814;28;20052;-71
2023/08/15 03:11:05;;;;;;;10.98;5.57;;;;;;;;;;5064365;28;20052;-70
2023/08/15 03:13:32;;;;;;;7.30;5.38;;;;;;;;;;5066517;28;20051;-70
2023/08/15 03:16:00;;;;;;;8.27;5.53;;;;;;;;;;5060428;28;20051;-70
2023/08/15 03:18:27;;;;;;;9.65;5.40;;;;;;;;;;5061908;28;20062;-70
2023/08/15 03:20:57;;;;;;;9.30;5.30;;;;;;;;;;5069417;28;20471;-70
2023/08/15 03:23:25;;;;;;;17.13;5.80;;;;;;;;;;5068794;28;20055;-70
2023/08/15 03:25:57;;;;;;;9.68;5.55;;;;;;;;;;5068368;28;20048;-70
2023/08/15 03:28:25;;;;;;;11.60;5.50;;;;;;;;;;5064273;28;20080;-69
2023/08/15 03:30:52;;;;;;;8.68;5.50;;;;;;;;;;5071802;28;20063;-70
2023/08/15 03:33:20;;;;;;;6.50;4.93;;;;;;;;;;5064429;28;20059;-70
2023/08/15 03:35:47;;;;;;;8.43;5.20;;;;;;;;;;5063266;28;20084;-70
2023/08/15 03:38:16;;;;;;;10.57;5.40;;;;;;;;;;5067942;28;20044;-71
2023/08/15 03:40:43;;;;;;;8.15;5.13;;;;;;;;;;5064601;28;20553;-70
2023/08/15 03:43:12;;;;;;;9.13;5.38;;;;;;;;;;5069211;28;20048;-70
2023/08/15 03:45:40;;;;;;;9.93;5.15;;;;;;;;;;5066618;28;20065;-70
2023/08/15 03:48:08;;;;;;;10.43;5.05;;;;;;;;;;5068972;28;20059;-70
2023/08/15 03:50:35;;;;;;;6.20;4.28;;;;;;;;;;5067272;28;20056;-70
2023/08/15 03:53:03;;;;;;;9.15;4.95;;;;;;;;;;5066701;28;20452;-70
2023/08/15 03:55:30;;;;;;;13.23;5.28;;;;;;;;;;5067053;28;20059;-69
2023/08/15 03:57:57;;;;;;;8.35;4.55;;;;;;;;;;5063148;28;20048;-69
2023/08/15 04:00:26;;;;;;;12.18;5.18;;;;;;;;;;5067370;28;20585;-70
2023/08/15 04:02:53;;;;;;;8.45;4.88;;;;;;;;;;5068236;28;20048;-70
2023/08/15 04:05:21;;;;;;;10.80;4.75;;;;;;;;;;5064640;28;20054;-70
2023/08/15 04:07:48;;;;;;;9.43;4.60;;;;;;;;;;5067744;28;20052;-70
2023/08/15 04:10:16;;;;;;;8.25;4.65;;;;;;;;;;5066795;28;20044;-70
2023/08/15 04:12:43;;;;;;;8.30;4.22;;;;;;;;;;5060378;28;20061;-70
2023/08/15 04:15:11;;;;;;;9.02;4.40;;;;;;;;;;5061429;28;20076;-70
2023/08/15 04:17:40;;;;;;;7.10;4.10;;;;;;;;;;5068759;28;20143;-70
2023/08/15 04:20:09;;;;;;;8.15;4.20;;;;;;;;;;5064927;28;20052;-70
2023/08/15 04:22:38;;;;;;;11.82;3.60;;;;;;;;;;5068498;28;20040;-70
2023/08/15 04:25:06;;;;;;;7.70;3.95;;;;;;;;;;5082298;28;20048;-70
2023/08/15 04:27:33;;;;;;;6.32;3.50;;;;;;;;;;5063114;28;20052;-70
2023/08/15 04:30:01;;;;;;;7.95;3.45;;;;;;;;;;5065909;28;20052;-70
2023/08/15 04:32:28;;;;;;;6.60;3.63;;;;;;;;;;5059482;28;20048;-70
2023/08/15 04:37:39;;;;;;;7.03;3.08;;;;;;;;;;5105768;27;20436;-68
2023/08/15 04:40:07;;;;;;;5.40;2.95;;;;;;;;;;5102360;28;20096;-69
2023/08/15 04:42:34;;;;;;;5.70;2.90;;;;;;;;;;5096544;28;20040;-68
2023/08/15 04:45:02;;;;;;;6.95;2.78;;;;;;;;;;5104665;28;20050;-68
2023/08/15 04:47:29;;;;;;;6.53;2.50;;;;;;;;;;5104345;28;20044;-68
2023/08/15 04:49:57;;;;;;;8.45;2.83;;;;;;;;;;5100525;28;20122;-68
2023/08/15 04:52:24;;;;;;;6.18;2.10;;;;;;;;;;5099429;28;20040;-68
2023/08/15 04:54:52;;;;;;;7.22;2.30;;;;;;;;;;5102612;28;20051;-68
2023/08/15 04:57:20;;;;;;;6.57;2.22;;;;;;;;;;5100373;28;20053;-67
2023/08/15 04:59:47;;;;;;;4.65;2.28;;;;;;;;;;5100811;28;20044;-71
2023/08/15 05:02:14;;;;;;;4.80;2.10;;;;;;;;;;5097846;28;20481;-70
2023/08/15 05:04:41;;;;;;;5.68;2.20;;;;;;;;;;5102228;28;20060;-71
2023/08/15 05:07:09;;;;;;;4.35;2.03;;;;;;;;;;5103103;28;20040;-71
2023/08/15 05:09:37;;;;;;;8.35;2.00;;;;;;;;;;5092787;28;20051;-72
2023/08/15 05:12:05;;;;;;;8.55;1.90;;;;;;;;;;5095167;28;20051;-70
2023/08/15 05:14:33;;;;;;;8.23;2.35;;;;;;;;;;5090700;28;20052;-70
2023/08/15 05:17:00;;;;;;;5.55;2.35;;;;;;;;;;5091857;28;20048;-71
2023/08/15 05:19:27;;;;;;;8.02;2.35;;;;;;;;;;5093249;28;20054;-71
2023/08/15 05:21:55;;;;;;;6.22;2.10;;;;;;;;;;5092753;28;20052;-70
2023/08/15 05:24:25;;;;;;;4.13;1.73;;;;;;;;;;5091597;28;20495;-71
2023/08/15 05:26:52;;;;;;;4.82;1.90;;;;;;;;;;5094170;28;20044;-69
2023/08/15 05:29:21;;;;;;;7.30;1.83;;;;;;;;;;5091655;28;20516;-70
2023/08/15 05:31:48;;;;;;;4.35;1.80;;;;;;;;;;5096206;28;20060;-71
2023/08/15 05:34:15;;;;;;;5.03;1.83;;;;;;;;;;5099587;28;20056;-69
2023/08/15 05:36:42;;;;;;;8.90;2.20;;;;;;;;;;5094980;28;20056;-69
2023/08/15 05:39:09;;;;;;;7.85;1.95;;;;;;;;;;5090400;28;20139;-71
2023/08/15 05:41:37;;;;;;;6.70;2.10;;;;;;;;;;5097967;28;20107;-70
2023/08/15 05:44:04;;;;;;;6.93;2.40;;;;;;;;;;5092575;28;20051;-70
2023/08/15 05:46:33;;;;;;;9.48;2.15;;;;;;;;;;5089358;28;20044;-71
2023/08/15 05:49:00;;;;;;;7.95;2.03;;;;;;;;;;5078634;28;20128;-71
2023/08/15 05:51:27;;;;;;;9.35;2.17;;;;;;;;;;5087609;28;20071;-70
2023/08/15 05:53:54;;;;;;;9.32;2.05;;;;;;;;;;5083790;28;20048;-68
2023/08/15 05:56:22;;;;;;;9.35;2.17;;;;;;;;;;5079253;28;20044;-69
2023/08/15 05:58:49;;;;;;;8.85;2.00;;;;;;;;;;5085244;28;20058;-70
2023/08/15 06:01:16;;;;;;;4.55;2.00;;;;;;;;;;5088595;28;20048;-70
2023/08/15 06:03:45;;;;;;;4.28;1.63;;;;;;;;;;5080105;28;20048;-69
2023/08/15 06:06:12;;;;;;;9.40;2.13;;;;;;;;;;5082878;28;20067;-69
2023/08/15 06:08:39;;;;;;;7.75;2.20;;;;;;;;;;5076264;28;20048;-71
2023/08/15 06:11:07;;;;;;;7.68;2.30;;;;;;;;;;5082124;28;20052;-69
2023/08/15 06:13:34;;;;;;;5.68;2.25;;;;;;;;;;5075970;28;20048;-69
2023/08/15 06:16:01;;;;;;;6.90;2.20;;;;;;;;;;5077592;28;20376;-69
2023/08/15 06:18:28;;;;;;;7.47;2.22;;;;;;;;;;5082291;28;20138;-69
2023/08/15 06:20:57;;;;;;;7.78;2.13;;;;;;;;;;5078904;28;20052;-68
2023/08/15 06:23:24;;;;;;;8.95;2.33;;;;;;;;;;5081325;28;20048;-69
2023/08/15 06:25:51;;;;;;;3.88;1.75;;;;;;;;;;5075518;28;20059;-68
2023/08/15 06:28:20;;;;;;;9.20;2.10;;;;;;;;;;5084450;28;20059;-69
2023/08/15 06:30:47;;;;;;;6.13;1.83;;;;;;;;;;5085311;28;20052;-69
2023/08/15 06:33:15;;;;;;;7.10;1.95;;;;;;;;;;5086388;28;20040;-70
2023/08/15 06:35:42;;;;;;;9.13;1.88;;;;;;;;;;5078652;28;20052;-68
2023/08/15 06:38:11;;;;;;;12.50;3.00;;;;;;;;;;5082041;28;20046;-68
2023/08/15 06:40:38;;;;;;;7.35;2.20;;;;;;;;;;5073989;28;20057;-69
2023/08/15 06:43:05;;;;;;;8.35;2.10;;;;;;;;;;5075155;28;20131;-69
2023/08/15 06:45:32;;;;;;;7.38;2.35;;;;;;;;;;5081323;28;20048;-70
2023/08/15 06:48:00;;;;;;;7.38;2.20;;;;;;;;;;5077225;28;20048;-69
2023/08/15 06:50:27;;;;;;;5.20;2.17;;;;;;;;;;5082227;28;20139;-69
2023/08/15 06:52:54;;;;;;;4.70;1.65;;;;;;;;;;5083288;28;20047;-70
2023/08/15 06:55:23;;;;;;;7.30;1.65;;;;;;;;;;5079171;28;20056;-69
2023/08/15 06:57:51;;;;;;;5.18;1.50;;;;;;;;;;5076762;28;20103;-69
2023/08/15 07:00:19;;;;;;;7.68;1.52;;;;;;;;;;5081445;28;20048;-69
2023/08/15 07:02:47;;;;;;;9.75;1.30;;;;;;;;;;5080869;28;20137;-69
2023/08/15 07:05:14;;;;;;;2.75;1.23;;;;;;;;;;5086019;28;20097;-69
2023/08/15 07:07:41;;;;;;;8.57;1.23;;;;;;;;;;5079616;28;20049;-69
2023/08/15 07:10:10;;;;;;;6.22;1.10;;;;;;;;;;5077861;28;20048;-69
2023/08/15 07:12:38;;;;;;;6.40;1.95;;;;;;;;;;5083157;28;20822;-69
2023/08/15 07:15:06;;;;;;;3.45;1.15;;;;;;;;;;5077320;28;20041;-69
2023/08/15 07:17:33;;;;;;;5.95;1.10;;;;;;;;;;5084514;28;20048;-69
2023/08/15 07:20:01;;;;;;;3.70;1.05;;;;;;;;;;5079040;28;20060;-69
2023/08/15 07:22:28;;;;;;;3.80;1.38;;;;;;;;;;5082556;28;20048;-70
2023/08/15 07:24:55;;;;;;;5.70;1.48;;;;;;;;;;5088125;28;20407;-69
2023/08/15 07:27:22;;;;;;;3.35;1.13;;;;;;;;;;5086342;28;20494;-69
2023/08/15 07:29:51;;;;;;;7.20;1.30;;;;;;;;;;5083405;28;20037;-68
2023/08/15 07:32:18;;;;;;;2.95;0.90;;;;;;;;;;5083958;28;20566;-69
2023/08/15 07:34:46;;;;;;;3.88;1.00;;;;;;;;;;5079013;28;20055;-69
2023/08/15 07:37:13;;;;;;;4.50;1.38;;;;;;;;;;5082714;28;20058;-68
2023/08/15 07:39:40;;;;;;;3.42;1.02;;;;;;;;;;5072202;28;20553;-73
2023/08/15 07:42:08;;;;;;;3.53;1.05;;;;;;;;;;5081102;28;20130;-71
2023/08/15 07:44:35;;;;;;;4.45;1.00;;;;;;;;;;5079289;28;20059;-70
2023/08/15 07:47:04;;;;;;;2.83;0.88;;;;;;;;;;5077828;28;20045;-70
2023/08/15 07:49:32;;;;;;;4.53;0.98;;;;;;;;;;5082121;28;20495;-70
2023/08/15 07:51:59;;;;;;;4.22;1.08;;;;;;;;;;5087443;28;20048;-70
2023/08/15 07:54:26;;;;;;;4.03;1.02;;;;;;;;;;5079535;28;20070;-70
2023/08/15 07:56:54;;;;;;;4.18;1.27;;;;;;;;;;5083443;28;20052;-72
2023/08/15 07:59:22;;;;;;;3.88;0.82;;;;;;;;;;5081907;28;20055;-69
2023/08/15 08:01:49;;;;;;;4.60;0.90;;;;;;;;;;5079792;28;20091;-70
2023/08/15 08:04:19;;;;;;;3.38;0.75;;;;;;;;;;5087378;28;20036;-70
2023/08/15 08:06:47;;;;;;;2.90;0.80;;;;;;;;;;5080641;28;20056;-71
2023/08/15 08:09:14;;;;;;;1.27;0.70;;;;;;;;;;5077873;28;20154;-70
2023/08/15 08:11:41;;;;;;;2.63;0.77;;;;;;;;;;5083449;28;20057;-70
2023/08/15 08:14:09;;;;;;;4.57;0.90;;;;;;;;;;5084583;28;20052;-70
2023/08/15 08:16:36;;;;;;;3.88;0.90;;;;;;;;;;5076866;28;20055;-70
2023/08/15 08:19:03;;;;;;;4.18;1.10;;;;;;;;;;5080224;28;20048;-70
2023/08/15 08:21:33;;;;;;;1.75;0.70;;;;;;;;;;5081103;28;20052;-70
2023/08/15 08:24:00;;;;;;;4.32;0.80;;;;;;;;;;5078645;28;20048;-69
2023/08/15 08:26:29;;;;;;;4.28;0.93;;;;;;;;;;5079272;28;20056;-70
2023/08/15 08:28:56;;;;;;;2.85;0.98;;;;;;;;;;5074907;28;20055;-70
2023/08/15 08:31:23;;;;;;;5.43;1.40;;;;;;;;;;5079632;28;20058;-70
2023/08/15 08:33:51;;;;;;;6.43;1.10;;;;;;;;;;5077276;28;20044;-70
2023/08/15 08:36:18;;;;;;;3.17;1.10;;;;;;;;;;5077921;28;20048;-69
2023/08/15 08:38:47;;;;;;;5.57;1.27;;;;;;;;;;5083139;28;20047;-71
2023/08/15 08:41:15;;;;;;;4.20;1.10;;;;;;;;;;5076799;28;20090;-69
2023/08/15 08:43:42;;;;;;;2.95;1.05;;;;;;;;;;5246849;22;20031;-73
2023/08/15 08:46:10;;;;;;;3.70;0.90;;;;;;;;;;5035296;28;20123;-73
2023/08/15 08:48:37;;;;;;;2.70;0.70;;;;;;;;;;5042443;28;20056;-72
2023/08/15 08:51:05;;;;;;;3.10;0.80;;;;;;;;;;5047851;28;20052;-72
2023/08/15 08:53:32;;;;;;;2.97;0.88;;;;;;;;;;5035268;28;20060;-72
2023/08/15 08:56:01;;;;;;;7.63;1.30;;;;;;;;;;5044446;28;20056;-72
2023/08/15 08:58:31;;;;;;;4.32;1.30;;;;;;;;;;5046605;28;20068;-73
2023/08/15 09:01:00;;;;;;;2.05;0.88;;;;;;;;;;5042833;28;20519;-71
2023/08/15 09:03:26;;;;;;;2.03;0.95;;;;;;;;;;5041028;28;20492;-72
2023/08/15 09:05:54;;;;;;;1.95;0.77;;;;;;;;;;5038455;28;20493;-72
2023/08/15 09:08:21;;;;;;;1.38;0.77;;;;;;;;;;5031559;28;20512;-72
2023/08/15 09:10:48;;;;;;;2.95;0.80;;;;;;;;;;5017963;28;20152;-72
2023/08/15 09:13:22;;;;;;;1.23;0.60;;;;;;;;;;5028074;28;20052;-72
2023/08/15 09:15:49;;;;;;;1.77;0.70;;;;;;;;;;5026576;28;20049;-72
2023/08/15 09:18:17;;;;;;;2.10;0.70;;;;;;;;;;5026759;28;20053;-72
2023/08/15 09:20:45;;;;;;;4.10;1.02;;;;;;;;;;5028497;28;20046;-72
2023/08/15 09:23:12;;;;;;;1.63;0.68;;;;;;;;;;5027772;28;20323;-72
2023/08/15 09:25:40;;;;;;;3.05;0.60;;;;;;;;;;5027926;28;20046;-72
2023/08/15 09:28:07;;;;;;;1.67;0.70;;;;;;;;;;5024726;28;20078;-74
2023/08/15 09:30:36;;;;;;;2.38;0.70;;;;;;;;;;5026258;28;20057;-72
2023/08/15 09:33:04;;;;;;;3.33;0.90;;;;;;;;;;5030046;28;20060;-72
2023/08/15 09:35:32;;;;;;;3.08;0.98;;;;;;;;;;5029730;28;20140;-72
2023/08/15 09:38:05;;;;;;;1.85;0.70;;;;;;;;;;5024579;28;20049;-73
2023/08/15 09:40:33;;;;;;;3.65;0.77;;;;;;;;;;5024049;28;20152;-72
2023/08/15 09:43:00;;;;;;;3.28;0.80;;;;;;;;;;5029474;28;20041;-73
2023/08/15 09:45:27;;;;;;;3.67;1.10;;;;;;;;;;5029675;28;20057;-74
2023/08/15 09:47:56;;;;;;;3.15;1.00;;;;;;;;;;5028987;28;20049;-71
2023/08/15 09:50:24;;;;;;;1.98;0.85;;;;;;;;;;5031579;28;20057;-72
2023/08/15 09:52:52;;;;;;;2.50;0.80;;;;;;;;;;5027556;28;20167;-73
2023/08/15 09:55:19;;;;;;;2.67;1.02;;;;;;;;;;5029086;28;20054;-72
2023/08/15 09:57:47;;;;;;;3.13;1.00;;;;;;;;;;5031661;28;20060;-72
2023/08/15 10:00:16;;;;;;;2.72;1.00;;;;;;;;;;5028827;28;20049;-72
2023/08/15 10:02:47;;;;;;;2.40;1.10;;;;;;;;;;5023197;28;20136;-72
2023/08/15 10:05:18;;;;;;;2.75;1.10;;;;;;;;;;5028087;28;20049;-72
2023/08/15 10:07:46;;;;;;;2.90;1.27;;;;;;;;;;5029074;28;20068;-71
2023/08/15 10:10:15;;;;;;;2.80;1.38;;;;;;;;;;5030741;28;20509;-73
2023/08/15 10:12:43;;;;;;;3.20;1.17;;;;;;;;;;5031569;28;20049;-72
2023/08/15 10:15:11;;;;;;;1.98;1.17;;;;;;;;;;5027799;28;20048;-74
2023/08/15 10:17:38;;;;;;;5.95;1.27;;;;;;;;;;5022555;28;20152;-73
2023/08/15 10:20:10;;;;;;;6.10;1.08;;;;;;;;;;5018831;28;20057;-73
2023/08/15 10:22:40;;;;;;;3.33;1.05;;;;;;;;;;5026211;28;20084;-73
2023/08/15 10:25:20;;;;;;;4.55;1.20;;;;;;;;;;5030770;28;20041;-72
2023/08/15 10:27:49;;;;;;;3.08;1.00;;;;;;;;;;5027692;28;20496;-72
2023/08/15 10:30:29;;;;;;;3.22;1.10;;;;;;;;;;5028990;28;20057;-73
2023/08/15 10:32:56;;;;;;;2.08;1.20;;;;;;;;;;5030817;28;20053;-73
2023/08/15 10:35:25;;;;;;;2.42;1.10;;;;;;;;;;5030603;28;20050;-72
2023/08/15 10:37:56;;;;;;;1.80;1.00;;;;;;;;;;5030106;28;20163;-72
2023/08/15 10:40:29;;;;;;;2.92;1.00;;;;;;;;;;5026713;28;20711;-72
2023/08/15 10:43:12;;;;;;;2.92;1.30;;;;;;;;;;5031268;28;20060;-73
2023/08/15 10:45:43;;;;;;;2.20;0.98;;;;;;;;;;5030218;28;20045;-72
2023/08/15 10:48:11;;;;;;;2.90;0.90;;;;;;;;;;5029523;28;20143;-74
2023/08/15 10:50:43;;;;;;;6.97;1.30;;;;;;;;;;5029481;28;20053;-71
2023/08/15 10:53:12;;;;;;;3.72;1.00;;;;;;;;;;5025394;28;20151;-71
2023/08/15 10:55:39;;;;;;;3.35;0.98;;;;;;;;;;5027611;28;20520;-72
2023/08/15 10:58:08;;;;;;;1.23;0.70;;;;;;;;;;5030390;28;20060;-72
2023/08/15 11:00:36;;;;;;;4.57;0.90;;;;;;;;;;5027275;28;20408;-72
2023/08/15 11:03:04;;;;;;;2.42;0.88;;;;;;;;;;5026649;28;20092;-72
2023/08/15 11:05:31;;;;;;;3.78;0.98;;;;;;;;;;5030044;28;20394;-72
2023/08/15 11:08:11;;;;;;;1.83;0.77;;;;;;;;;;5030707;28;20508;-72
2023/08/15 11:10:43;;;;;;;3.50;0.82;;;;;;;;;;5023225;28;20050;-72
2023/08/15 11:13:10;;;;;;;5.18;1.15;;;;;;;;;;5018802;28;20053;-72
2023/08/15 11:15:38;;;;;;;2.97;0.80;;;;;;;;;;5027067;28;20568;-72
2023/08/15 11:18:05;;;;;;;3.42;1.02;;;;;;;;;;5029070;28;20057;-73
2023/08/15 11:20:32;;;;;;;2.50;0.85;;;;;;;;;;5027523;28;20417;-72
2023/08/15 11:23:00;;;;;;;4.00;0.77;;;;;;;;;;5027832;28;20496;-72
2023/08/15 11:25:28;;;;;;;2.90;1.02;;;;;;;;;;5028003;28;20053;-73
2023/08/15 11:27:56;;;;;;;1.55;0.88;;;;;;;;;;5029434;28;21087;-72
2023/08/15 11:30:23;;;;;;;2.20;1.10;;;;;;;;;;5028226;28;20059;-72
2023/08/15 11:32:51;;;;;;;5.10;0.90;;;;;;;;;;5030244;28;20045;-72
2023/08/15 11:35:19;;;;;;;2.22;1.05;;;;;;;;;;5022840;28;20054;-72
2023/08/15 11:37:46;;;;;;;4.82;1.00;;;;;;;;;;5020425;28;20555;-72
2023/08/15 11:40:13;;;;;;;2.05;0.93;;;;;;;;;;5027582;28;20485;-72
2023/08/15 11:42:42;;;;;;;3.30;0.95;;;;;;;;;;5024108;28;20042;-72
2023/08/15 11:45:11;;;;;;;2.10;1.00;;;;;;;;;;5019631;28;20072;-72
2023/08/15 11:47:52;;;;;;;3.15;0.85;;;;;;;;;;5020948;28;20042;-73
2023/08/15 11:50:20;;;;;;;3.08;1.00;;;;;;;;;;5028626;28;20060;-73
2023/08/15 11:52:47;;;;;;;2.30;1.05;;;;;;;;;;5027334;28;20049;-73
2023/08/15 11:55:15;;;;;;;2.30;1.10;;;;;;;;;;5027186;28;20049;-72
2023/08/15 11:57:43;;;;;;;2.78;1.13;;;;;;;;;;5028777;28;20456;-72
2023/08/15 12:00:11;;;;;;;2.13;0.90;;;;;;;;;;5020911;28;20493;-73
2023/08/15 12:02:44;;;;;;;3.22;1.05;;;;;;;;;;5023117;28;20057;-73
2023/08/15 12:05:12;;;;;;;3.33;1.10;;;;;;;;;;5026891;28;20499;-72
2023/08/15 12:07:39;;;;;;;3.55;0.80;;;;;;;;;;5026184;28;20056;-73
2023/08/15 12:10:08;;;;;;;2.25;0.90;;;;;;;;;;5027652;28;20463;-73
2023/08/15 12:12:39;;;;;;;2.50;1.00;;;;;;;;;;5028106;28;20049;-74
2023/08/15 12:15:08;;;;;;;1.55;0.88;;;;;;;;;;5025594;28;20107;-74
2023/08/15 12:17:36;;;;;;;6.78;1.25;;;;;;;;;;5028144;28;20065;-73
2023/08/15 12:20:04;;;;;;;2.75;0.80;;;;;;;;;;5023940;28;20049;-71
2023/08/15 12:22:32;;;;;;;3.22;0.95;;;;;;;;;;5026915;28;20053;-73
2023/08/15 12:24:59;;;;;;;2.35;0.70;;;;;;;;;;5028730;28;20045;-73
2023/08/15 12:27:26;;;;;;;1.00;0.85;;;;;;;;;;5025603;28;20057;-73
2023/08/15 12:29:54;;;;;;;3.67;1.05;;;;;;;;;;5019285;28;20049;-72
2023/08/15 12:32:23;;;;;;;1.33;0.70;;;;;;;;;;5020275;28;20125;-73
2023/08/15 12:34:50;;;;;;;1.48;1.00;;;;;;;;;;5028688;28;20057;-71
2023/08/15 12:37:17;;;;;;;1.02;0.75;;;;;;;;;;5018047;28;20084;-72
2023/08/15 12:39:45;;;;;;;2.00;0.95;;;;;;;;;;5024389;28;20050;-72
2023/08/15 12:42:13;;;;;;;2.28;0.90;;;;;;;;;;5028179;28;20050;-73
2023/08/15 12:44:40;;;;;;;3.05;1.38;;;;;;;;;;5021521;28;20566;-72
2023/08/15 12:47:09;;;;;;;1.42;0.77;;;;;;;;;;5025600;28;20059;-73
2023/08/15 12:49:37;;;;;;;2.47;1.02;;;;;;;;;;5027926;28;20095;-73
2023/08/15 12:52:06;;;;;;;1.67;0.82;;;;;;;;;;5023956;28;20046;-73
2023/08/15 12:54:33;;;;;;;2.00;0.90;;;;;;;;;;5022548;28;20050;-73
2023/08/15 12:57:01;;;;;;;2.15;0.88;;;;;;;;;;5023888;28;20052;-72
2023/08/15 12:59:28;;;;;;;2.53;1.05;;;;;;;;;;5033289;28;20049;-72
2023/08/15 13:01:56;;;;;;;1.33;0.90;;;;;;;;;;5030173;28;20481;-72
2023/08/15 13:04:23;;;;;;;1.60;0.90;;;;;;;;;;5032683;28;20045;-72
2023/08/15 13:06:51;;;;;;;2.33;1.00;;;;;;;;;;5029992;28;20053;-72
2023/08/15 13:09:19;;;;;;;1.50;0.80;;;;;;;;;;5023789;28;20049;-73
2023/08/15 13:11:46;;;;;;;2.55;1.00;;;;;;;;;;5025161;28;20396;-73
2023/08/15 13:14:13;;;;;;;2.20;0.98;;;;;;;;;;5027070;28;20471;-72
2023/08/15 13:16:41;;;;;;;1.75;0.90;;;;;;;;;;5023915;28;20404;-72
2023/08/15 13:19:08;;;;;;;4.28;1.20;;;;;;;;;;5031485;28;20049;-72
2023/08/15 13:21:36;;;;;;;2.20;0.90;;;;;;;;;;5030355;28;20056;-73
2023/08/15 13:24:05;;;;;;;2.03;1.00;;;;;;;;;;5021763;28;20170;-73
2023/08/15 13:26:32;;;;;;;2.20;0.88;;;;;;;;;;5029178;28;20523;-72
2023/08/15 13:29:00;;;;;;;1.20;0.82;;;;;;;;;;5029284;28;20053;-73
2023/08/15 13:31:27;;;;;;;1.50;0.77;;;;;;;;;;5031805;28;20053;-72
2023/08/15 13:33:54;;;;;;;3.40;1.00;;;;;;;;;;5030125;28;20052;-72
2023/08/15 13:36:21;;;;;;;2.00;0.85;;;;;;;;;;5030287;28;20045;-72
2023/08/15 13:38:49;;;;;;;3.00;0.90;;;;;;;;;;5030218;28;20058;-73
2023/08/15 13:41:17;;;;;;;2.95;1.17;;;;;;;;;;5031867;28;20049;-74
2023/08/15 13:43:45;;;;;;;2.50;1.08;;;;;;;;;;5027444;28;20068;-73
2023/08/15 13:46:12;;;;;;;2.70;0.80;;;;;;;;;;5028900;28;20065;-73
2023/08/15 13:48:39;;;;;;;2.58;1.00;;;;;;;;;;5031754;28;20057;-73
2023/08/15 13:51:14;;;;;;;1.35;0.82;;;;;;;;;;5027173;28;20056;-72
2023/08/15 13:53:41;;;;;;;2.42;1.00;;;;;;;;;;5031429;28;20050;-73
2023/08/15 13:56:09;;;;;;;1.42;0.90;;;;;;;;;;5028466;28;20057;-73
2023/08/15 13:58:37;;;;;;;1.83;0.90;;;;;;;;;;5027450;28;21187;-72
2023/08/15 14:01:05;;;;;;;1.35;0.90;;;;;;;;;;5030064;28;20069;-72
2023/08/15 14:03:32;;;;;;;1.80;1.05;;;;;;;;;;5031056;28;20057;-72
2023/08/15 14:06:00;;;;;;;1.70;0.82;;;;;;;;;;5031321;28;20048;-72
2023/08/15 14:08:27;;;;;;;2.08;0.98;;;;;;;;;;5027651;28;20045;-73
2023/08/15 14:10:55;;;;;;;4.85;1.00;;;;;;;;;;5030599;28;20061;-73
2023/08/15 14:13:22;;;;;;;2.30;1.05;;;;;;;;;;5021841;28;20053;-73
2023/08/15 14:15:50;;;;;;;1.83;0.93;;;;;;;;;;5031098;28;20068;-72
2023/08/15 14:18:18;;;;;;;1.52;0.85;;;;;;;;;;5022268;28;20049;-71
2023/08/15 14:20:45;;;;;;;2.40;0.80;;;;;;;;;;5029806;28;20045;-73
2023/08/15 14:23:12;;;;;;;1.05;0.80;;;;;;;;;;5027229;28;20049;-72
2023/08/15 14:25:40;;;;;;;1.77;0.90;;;;;;;;;;5030320;28;20511;-73
2023/08/15 14:28:07;;;;;;;2.88;1.08;;;;;;;;;;5030299;28;20053;-74
2023/08/15 14:30:34;;;;;;;2.47;0.88;;;;;;;;;;5029244;28;20051;-72
2023/08/15 14:33:03;;;;;;;1.27;0.80;;;;;;;;;;5027530;28;20496;-72
2023/08/15 14:35:30;;;;;;;1.95;0.85;;;;;;;;;;5023125;28;20829;-72
2023/08/15 14:37:57;;;;;;;2.80;1.10;;;;;;;;;;5024527;28;20045;-73
2023/08/15 14:40:25;;;;;;;1.10;0.90;;;;;;;;;;5027678;28;20045;-73
2023/08/15 14:42:52;;;;;;;2.03;1.00;;;;;;;;;;5030356;28;20370;-73
2023/08/15 14:45:19;;;;;;;3.25;0.90;;;;;;;;;;5025191;28;20057;-74
2023/08/15 14:47:46;;;;;;;2.28;1.05;;;;;;;;;;5024074;28;20052;-73
2023/08/15 14:50:15;;;;;;;3.70;0.90;;;;;;;;;;5030615;28;20061;-73